createdAt,value
2019-04-16T00:03:00.294Z,21.57
2019-04-16T00:05:49.843Z,19.75
2019-04-16T00:08:28.819Z,21.47
2019-04-16T00:11:31.670Z,20.20
2019-04-16T00:14:16.562Z,21.67
2019-04-16T00:16:47.530Z,20.90
2019-04-16T00:19:18.987Z,20.00
2019-04-16T00:22:01.531Z,20.20
2019-04-16T00:24:38.603Z,19.87
2019-04-16T00:27:09.708Z,18.33
2019-04-16T00:29:40.746Z,18.52
2019-04-16T00:32:17.515Z,19.23
2019-04-16T00:34:50.562Z,20.17
2019-04-16T00:37:24.100Z,23.37
2019-04-16T00:39:56.844Z,19.80
2019-04-16T00:42:28.372Z,20.80
2019-04-16T00:44:59.639Z,21.67
2019-04-16T00:47:31.103Z,18.95
2019-04-16T00:50:02.215Z,18.47
2019-04-16T00:52:36.712Z,20.83
2019-04-16T00:55:08.125Z,19.87
2019-04-16T00:57:38.914Z,19.13
2019-04-16T01:00:10.621Z,21.50
2019-04-16T01:02:41.682Z,24.32
2019-04-16T01:05:12.254Z,21.80
2019-04-16T01:07:42.942Z,31.13
2019-04-16T01:10:14.093Z,19.60
2019-04-16T01:12:44.977Z,20.00
2019-04-16T01:15:15.815Z,20.53
2019-04-16T01:17:47.114Z,20.97
2019-04-16T01:20:17.924Z,22.20
2019-04-16T01:22:49.016Z,21.12
2019-04-16T01:25:23.286Z,19.70
2019-04-16T01:28:00.968Z,21.13
2019-04-16T01:30:43.765Z,20.20
2019-04-16T01:33:21.241Z,19.33
2019-04-16T01:36:05.172Z,18.83
2019-04-16T01:39:15.254Z,20.17
2019-04-16T01:41:33.787Z,19.97
2019-04-16T01:44:05.165Z,19.83
2019-04-16T01:46:37.421Z,19.23
2019-04-16T01:49:10.293Z,19.33
2019-04-16T01:51:41.098Z,19.23
2019-04-16T01:54:13.102Z,19.15
2019-04-16T01:56:44.315Z,20.77
2019-04-16T01:59:15.245Z,20.77
2019-04-16T02:01:46.217Z,20.70
2019-04-16T02:04:19.600Z,20.73
2019-04-16T02:06:50.962Z,18.57
2019-04-16T02:09:23.119Z,21.43
2019-04-16T02:11:54.072Z,20.53
2019-04-16T02:14:26.215Z,19.73
2019-04-16T02:16:57.440Z,18.17
2019-04-16T02:19:32.471Z,19.57
2019-04-16T02:22:01.275Z,18.62
2019-04-16T02:24:32.471Z,18.60
2019-04-16T02:27:04.927Z,19.07
2019-04-16T02:29:36.959Z,20.80
2019-04-16T02:32:08.017Z,20.03
2019-04-16T02:34:43.166Z,20.60
2019-04-16T02:37:13.899Z,19.27
2019-04-16T02:39:49.229Z,19.07
2019-04-16T02:42:18.505Z,21.77
2019-04-16T02:45:00.959Z,19.60
2019-04-16T02:47:31.913Z,19.42
2019-04-16T02:50:05.165Z,20.03
2019-04-16T02:52:53.425Z,20.37
2019-04-16T02:55:42.651Z,21.12
2019-04-16T02:58:35.358Z,19.93
2019-04-16T03:01:25.081Z,21.10
2019-04-16T03:04:01.480Z,20.73
2019-04-16T03:06:35.405Z,21.00
2019-04-16T03:09:09.947Z,19.10
2019-04-16T03:11:41.738Z,23.75
2019-04-16T03:14:13.285Z,21.27
2019-04-16T03:17:01.087Z,34.70
2019-04-16T03:19:34.920Z,24.80
2019-04-16T03:22:06.635Z,24.10
2019-04-16T03:24:39.745Z,21.43
2019-04-16T03:27:10.440Z,21.67
2019-04-16T03:29:41.730Z,27.42
2019-04-16T03:32:14.992Z,24.57
2019-04-16T03:34:45.889Z,21.37
2019-04-16T03:37:17.214Z,23.27
2019-04-16T03:39:48.469Z,23.40
2019-04-16T03:42:19.372Z,24.90
2019-04-16T03:44:50.603Z,19.83
2019-04-16T03:47:21.456Z,24.63
2019-04-16T03:49:52.348Z,21.67
2019-04-16T03:52:23.399Z,24.90
2019-04-16T03:54:54.729Z,23.67
2019-04-16T03:57:26.963Z,25.93
2019-04-16T04:00:00.674Z,25.37
2019-04-16T04:02:31.301Z,22.32
2019-04-16T04:05:06.357Z,24.93
2019-04-16T04:07:35.585Z,23.02
2019-04-16T04:10:06.975Z,21.97
2019-04-16T04:12:37.916Z,22.67
2019-04-16T04:15:08.923Z,21.27
2019-04-16T04:17:43.572Z,23.63
2019-04-16T04:20:18.096Z,24.67
2019-04-16T04:22:47.628Z,24.43
2019-04-16T04:25:18.956Z,23.33
2019-04-16T04:27:52.371Z,21.20
2019-04-16T04:30:25.688Z,26.23
2019-04-16T04:32:58.053Z,22.60
2019-04-16T04:35:31.318Z,25.93
2019-04-16T04:38:04.176Z,22.80
2019-04-16T04:40:44.281Z,22.20
2019-04-16T04:43:11.542Z,23.87
2019-04-16T04:45:42.658Z,22.37
2019-04-16T04:48:13.342Z,22.67
2019-04-16T04:50:45.297Z,23.93
2019-04-16T04:53:19.220Z,22.67
2019-04-16T04:55:49.819Z,24.97
2019-04-16T04:58:20.911Z,23.27
2019-04-16T05:00:52.461Z,24.80
2019-04-16T05:03:36.598Z,32.73
2019-04-16T05:06:28.032Z,32.07
2019-04-16T05:09:00.416Z,34.70
2019-04-16T05:11:31.771Z,32.53
2019-04-16T05:14:02.695Z,33.17
2019-04-16T05:16:35.023Z,39.67
2019-04-16T05:19:14.874Z,34.33
2019-04-16T05:21:54.222Z,41.90
2019-04-16T05:24:33.147Z,37.70
2019-04-16T05:27:08.560Z,34.57
2019-04-16T05:29:38.174Z,36.40
2019-04-16T05:32:10.009Z,35.40
2019-04-16T05:34:41.112Z,41.10
2019-04-16T05:37:12.348Z,35.80
2019-04-16T05:39:43.109Z,41.13
2019-04-16T05:42:14.047Z,35.88
2019-04-16T05:44:44.932Z,41.13
2019-04-16T05:47:18.289Z,41.77
2019-04-16T05:49:49.369Z,40.37
2019-04-16T05:52:20.446Z,40.40
2019-04-16T05:55:06.274Z,37.03
2019-04-16T05:57:39.163Z,46.60
2019-04-16T06:00:22.060Z,42.97
2019-04-16T06:02:52.961Z,43.53
2019-04-16T06:05:27.906Z,44.43
2019-04-16T06:08:10.502Z,40.97
2019-04-16T06:10:42.078Z,51.00
2019-04-16T06:13:47.379Z,42.77
2019-04-16T06:16:37.592Z,48.50
2019-04-16T06:19:20.903Z,45.10
2019-04-16T06:22:22.036Z,43.00
2019-04-16T06:25:20.376Z,43.13
2019-04-16T06:28:10.052Z,45.00
2019-04-16T06:31:04.902Z,42.60
2019-04-16T06:33:50.122Z,41.80
2019-04-16T06:36:38.218Z,38.67
2019-04-16T06:39:19.945Z,39.80
2019-04-16T06:42:13.974Z,51.30
2019-04-16T06:45:07.062Z,51.20
2019-04-16T06:47:58.319Z,61.63
2019-04-16T06:50:51.147Z,70.33
2019-04-16T06:53:44.570Z,79.95
2019-04-16T06:56:43.951Z,103.67
2019-04-16T06:59:34.167Z,95.23
2019-04-16T07:02:24.611Z,75.90
2019-04-16T07:05:06.203Z,79.40
2019-04-16T07:08:05.557Z,66.97
2019-04-16T07:10:44.594Z,70.33
2019-04-16T07:13:16.551Z,77.37
2019-04-16T07:15:47.757Z,69.23
2019-04-16T07:18:21.277Z,60.93
2019-04-16T07:20:56.092Z,52.50
2019-04-16T07:23:48.540Z,59.17
2019-04-16T07:26:19.795Z,53.37
2019-04-16T07:29:15.879Z,48.80
2019-04-16T07:32:09.116Z,51.50
2019-04-16T07:34:45.707Z,50.95
2019-04-16T07:37:35.592Z,48.93
2019-04-16T07:40:35.223Z,56.48
2019-04-16T07:43:25.232Z,53.60
2019-04-16T07:46:22.749Z,56.70
2019-04-16T07:49:19.260Z,68.00
2019-04-16T07:52:13.532Z,72.17
2019-04-16T07:55:11.150Z,72.80
2019-04-16T07:57:42.002Z,64.00
2019-04-16T08:00:14.196Z,64.50
2019-04-16T08:02:46.052Z,54.30
2019-04-16T08:05:17.042Z,53.33
2019-04-16T08:07:49.821Z,58.33
2019-04-16T08:10:26.240Z,60.33
2019-04-16T08:13:13.959Z,48.47
2019-04-16T08:15:45.255Z,47.60
2019-04-16T08:18:17.387Z,41.87
2019-04-16T08:21:00.343Z,43.77
2019-04-16T08:23:42.889Z,46.53
2019-04-16T08:26:14.328Z,42.67
2019-04-16T08:28:46.080Z,39.17
2019-04-16T08:31:23.585Z,46.33
2019-04-16T08:33:54.580Z,48.37
2019-04-16T08:36:25.413Z,52.40
2019-04-16T08:38:57.283Z,50.25
2019-04-16T08:41:28.314Z,49.37
2019-04-16T08:44:03.527Z,46.13
2019-04-16T08:46:34.979Z,49.90
2019-04-16T08:49:06.209Z,44.90
2019-04-16T08:51:37.931Z,33.90
2019-04-16T08:54:09.273Z,33.60
2019-04-16T08:56:39.955Z,29.57
2019-04-16T08:59:11.346Z,27.83
2019-04-16T09:01:42.612Z,29.73
2019-04-16T09:04:13.636Z,33.47
2019-04-16T09:06:46.324Z,27.93
2019-04-16T09:09:25.602Z,28.10
2019-04-16T09:12:09.259Z,32.50
2019-04-16T09:14:54.929Z,30.03
2019-04-16T09:17:44.044Z,28.90
2019-04-16T09:20:23.167Z,27.27
2019-04-16T09:27:04.301Z,26.93
2019-04-16T09:29:52.615Z,30.10
2019-04-16T09:33:02.345Z,27.32
2019-04-16T09:35:55.286Z,24.90
2019-04-16T09:38:36.509Z,29.27
2019-04-16T09:41:25.214Z,25.47
2019-04-16T09:43:58.786Z,22.93
2019-04-16T09:46:49.580Z,32.87
2019-04-16T09:49:05.144Z,29.43
2019-04-16T09:51:36.577Z,28.67
2019-04-16T09:54:12.507Z,27.13
2019-04-16T09:56:40.560Z,26.87
2019-04-16T09:59:29.167Z,23.80
2019-04-16T10:02:07.920Z,26.93
2019-04-16T10:04:39.424Z,30.17
2019-04-16T10:07:10.451Z,28.40
2019-04-16T10:09:41.375Z,22.37
2019-04-16T10:12:13.568Z,23.37
2019-04-16T10:14:47.130Z,27.57
2019-04-16T10:17:25.539Z,28.27
2019-04-16T10:20:01.944Z,23.03
2019-04-16T10:22:34.086Z,27.90
2019-04-16T10:25:15.550Z,25.67
2019-04-16T10:28:01.894Z,27.70
2019-04-16T10:30:37.124Z,24.13
2019-04-16T10:33:11.205Z,23.20
2019-04-16T10:36:04.551Z,22.13
2019-04-16T10:38:56.779Z,24.20
2019-04-16T10:41:50.805Z,21.80
2019-04-16T10:44:58.955Z,22.22
2019-04-16T10:47:42.904Z,29.47
2019-04-16T10:50:29.160Z,21.80
2019-04-16T10:53:23.147Z,25.25
2019-04-16T10:56:11.808Z,23.17
2019-04-16T10:59:01.912Z,23.50
2019-04-16T11:02:09.665Z,20.53
2019-04-16T11:05:05.607Z,20.48
2019-04-16T11:07:42.058Z,22.00
2019-04-16T11:10:18.408Z,21.93
2019-04-16T11:12:52.970Z,23.30
2019-04-16T11:15:27.163Z,29.43
2019-04-16T11:17:59.938Z,20.60
2019-04-16T11:20:40.259Z,24.57
2019-04-16T11:23:17.604Z,23.67
2019-04-16T11:25:56.518Z,19.30
2019-04-16T11:28:28.596Z,18.80
2019-04-16T11:31:03.017Z,19.17
2019-04-16T11:33:38.694Z,22.23
2019-04-16T11:36:19.894Z,26.27
2019-04-16T11:38:46.354Z,18.93
2019-04-16T11:41:27.716Z,20.90
2019-04-16T11:44:14.189Z,21.47
2019-04-16T11:46:36.294Z,19.47
2019-04-16T11:49:08.348Z,22.03
2019-04-16T11:51:39.714Z,21.83
2019-04-16T11:54:14.606Z,20.62
2019-04-16T11:56:46.912Z,21.90
2019-04-16T11:59:21.193Z,19.67
2019-04-16T12:02:19.585Z,16.83
2019-04-16T12:05:05.779Z,20.27
2019-04-16T12:07:59.163Z,24.32
2019-04-16T12:10:47.482Z,21.40
2019-04-16T12:13:40.517Z,19.37
2019-04-16T12:16:39.123Z,18.33
2019-04-16T12:19:32.394Z,19.43
2019-04-16T12:22:25.599Z,17.92
2019-04-16T12:25:15.459Z,20.90
2019-04-16T12:28:01.860Z,18.47
2019-04-16T12:30:52.571Z,17.60
2019-04-16T12:33:36.603Z,17.40
2019-04-16T12:36:32.508Z,20.93
2019-04-16T12:39:36.226Z,18.00
2019-04-16T12:42:32.087Z,15.43
2019-04-16T12:45:25.278Z,15.73
2019-04-16T12:48:32.199Z,14.00
2019-04-16T12:51:52.135Z,15.80
2019-04-16T12:54:47.549Z,14.95
2019-04-16T12:57:37.553Z,16.60
2019-04-16T13:00:35.362Z,19.20
2019-04-16T13:03:32.416Z,19.27
2019-04-16T13:06:17.097Z,18.10
2019-04-16T13:09:06.141Z,18.90
2019-04-16T13:11:49.619Z,14.33
2019-04-16T13:14:59.643Z,14.73
2019-04-16T13:18:12.486Z,16.50
2019-04-16T13:21:21.914Z,24.82
2019-04-16T13:24:17.260Z,19.73
2019-04-16T13:27:15.688Z,15.50
2019-04-16T13:29:47.010Z,18.20
2019-04-16T13:32:18.137Z,15.75
2019-04-16T13:34:49.359Z,19.67
2019-04-16T13:37:21.012Z,16.62
2019-04-16T13:40:06.246Z,17.07
2019-04-16T13:42:48.268Z,12.43
2019-04-16T13:45:33.073Z,12.97
2019-04-16T13:48:15.747Z,21.73
2019-04-16T13:50:45.554Z,15.63
2019-04-16T13:53:28.732Z,19.40
2019-04-16T13:56:26.742Z,19.13
2019-04-16T13:59:06.715Z,23.27
2019-04-16T14:01:46.039Z,19.23
2019-04-16T14:04:16.147Z,18.17
2019-04-16T14:06:47.335Z,17.07
2019-04-16T14:09:18.852Z,19.05
2019-04-16T14:11:51.308Z,18.90
2019-04-16T14:14:24.991Z,18.85
2019-04-16T14:16:56.951Z,17.80
2019-04-16T14:19:27.943Z,22.33
2019-04-16T14:22:18.938Z,20.47
2019-04-16T14:24:49.950Z,18.77
2019-04-16T14:27:21.801Z,17.02
2019-04-16T14:29:53.250Z,23.13
2019-04-16T14:32:30.345Z,16.47
2019-04-16T14:35:10.712Z,16.00
2019-04-16T14:37:44.022Z,16.77
2019-04-16T14:40:22.281Z,19.10
2019-04-16T14:42:57.470Z,21.77
2019-04-16T14:46:00.199Z,22.27
2019-04-16T14:48:32.497Z,18.90
2019-04-16T14:51:04.119Z,18.77
2019-04-16T14:53:52.601Z,23.77
2019-04-16T14:56:43.498Z,20.03
2019-04-16T14:59:40.401Z,18.87
2019-04-16T15:02:30.683Z,19.57
2019-04-16T15:05:34.162Z,21.80
2019-04-16T15:08:23.116Z,20.63
2019-04-16T15:11:12.149Z,23.00
2019-04-16T15:14:08.518Z,20.47
2019-04-16T15:17:02.241Z,19.00
2019-04-16T15:19:41.622Z,23.77
2019-04-16T15:22:41.148Z,22.80
2019-04-16T15:25:31.144Z,18.12
2019-04-16T15:28:34.751Z,19.82
2019-04-16T15:31:19.064Z,23.63
2019-04-16T15:34:09.845Z,20.37
2019-04-16T15:36:44.101Z,21.85
2019-04-16T15:39:28.354Z,19.35
2019-04-16T15:42:17.745Z,23.63
2019-04-16T15:45:00.918Z,24.63
2019-04-16T15:47:55.644Z,20.17
2019-04-16T15:50:52.771Z,25.25
2019-04-16T15:53:43.620Z,19.47
2019-04-16T15:56:33.242Z,22.27
2019-04-16T15:59:09.092Z,22.30
2019-04-16T16:02:02.021Z,21.95
2019-04-16T16:04:41.937Z,18.70
2019-04-16T16:07:16.143Z,17.00
2019-04-16T16:10:19.401Z,19.73
2019-04-16T16:12:53.633Z,19.20
2019-04-16T16:15:25.415Z,20.87
2019-04-16T16:17:56.566Z,17.25
2019-04-16T16:20:28.011Z,18.95
2019-04-16T16:23:00.587Z,17.32
2019-04-16T16:25:31.512Z,19.83
2019-04-16T16:28:08.915Z,19.17
2019-04-16T16:30:40.079Z,23.03
2019-04-16T16:33:11.045Z,20.37
2019-04-16T16:35:56.545Z,20.23
2019-04-16T16:38:15.993Z,22.47
2019-04-16T16:40:49.755Z,20.63
2019-04-16T16:43:21.357Z,19.53
2019-04-16T16:46:26.928Z,19.97
2019-04-16T16:48:58.706Z,17.47
2019-04-16T16:51:30.792Z,21.67
2019-04-16T16:54:12.157Z,20.23
2019-04-16T16:56:52.139Z,22.02
2019-04-16T16:59:28.509Z,22.90
2019-04-16T17:02:25.692Z,22.53
2019-04-16T17:04:57.184Z,28.57
2019-04-16T17:07:28.495Z,23.60
2019-04-16T17:09:59.687Z,24.10
2019-04-16T17:12:30.580Z,23.43
2019-04-16T17:15:01.518Z,26.07
2019-04-16T17:17:32.916Z,27.73
2019-04-16T17:20:04.633Z,22.67
2019-04-16T17:22:36.251Z,24.60
2019-04-16T17:25:10.503Z,22.50
2019-04-16T17:27:51.093Z,25.70
2019-04-16T17:30:14.246Z,26.20
2019-04-16T17:32:45.563Z,21.10
2019-04-16T17:35:16.732Z,22.67
2019-04-16T17:37:48.065Z,27.52
2019-04-16T17:40:38.719Z,26.05
2019-04-16T17:43:20.684Z,27.93
2019-04-16T17:45:59.274Z,24.70
2019-04-16T17:48:52.587Z,25.30
2019-04-16T17:51:28.034Z,24.13
2019-04-16T17:54:09.483Z,24.93
2019-04-16T17:57:05.563Z,26.70
2019-04-16T17:59:49.969Z,31.93
2019-04-16T18:02:44.024Z,39.03
2019-04-16T18:05:27.463Z,31.27
2019-04-16T18:08:19.872Z,29.57
2019-04-16T18:11:18.869Z,27.57
2019-04-16T18:14:04.395Z,25.80
2019-04-16T18:16:39.498Z,34.77
2019-04-16T18:19:24.765Z,28.57
2019-04-16T18:22:15.596Z,32.27
2019-04-16T18:25:08.129Z,33.95
2019-04-16T18:27:50.263Z,31.77
2019-04-16T18:30:40.540Z,23.87
2019-04-16T18:33:31.439Z,35.85
2019-04-16T18:36:14.227Z,28.57
2019-04-16T18:38:56.268Z,24.75
2019-04-16T18:41:50.591Z,29.90
2019-04-16T18:44:43.462Z,27.10
2019-04-16T18:47:36.315Z,25.40
2019-04-16T18:50:11.613Z,24.77
2019-04-16T18:52:42.738Z,28.95
2019-04-16T18:55:13.638Z,29.33
2019-04-16T18:57:44.421Z,29.87
2019-04-16T19:00:33.234Z,25.85
2019-04-16T19:03:06.635Z,25.23
2019-04-16T19:05:38.055Z,26.57
2019-04-16T19:08:20.330Z,30.27
2019-04-16T19:11:06.677Z,35.03
2019-04-16T19:13:38.221Z,33.67
2019-04-16T19:16:09.702Z,38.60
2019-04-16T19:18:41.281Z,41.83
2019-04-16T19:21:12.388Z,42.50
2019-04-16T19:23:45.262Z,32.43
2019-04-16T19:26:21.576Z,36.80
2019-04-16T19:28:52.547Z,35.53
2019-04-16T19:31:23.995Z,28.70
2019-04-16T19:33:55.811Z,24.93
2019-04-16T19:36:27.520Z,27.07
2019-04-16T19:39:06.729Z,25.67
2019-04-16T19:41:41.256Z,25.47
2019-04-16T19:44:16.679Z,26.37
2019-04-16T19:46:52.665Z,25.73
2019-04-16T19:49:22.130Z,25.10
2019-04-16T19:51:53.269Z,24.33
2019-04-16T19:54:23.898Z,22.97
2019-04-16T19:56:55.153Z,24.33
2019-04-16T19:59:26.178Z,23.70
2019-04-16T20:01:59.734Z,23.00
2019-04-16T20:04:31.636Z,25.40
2019-04-16T20:07:04.076Z,25.85
2019-04-16T20:09:38.940Z,23.35
2019-04-16T20:12:08.845Z,23.87
2019-04-16T20:14:39.921Z,23.70
2019-04-16T20:17:11.677Z,24.07
2019-04-16T20:20:01.498Z,23.20
2019-04-16T20:22:35.702Z,21.87
2019-04-16T20:25:07.666Z,23.52
2019-04-16T20:27:39.598Z,24.32
2019-04-16T20:30:13.442Z,22.42
2019-04-16T20:32:44.386Z,25.23
2019-04-16T20:35:19.022Z,24.52
2019-04-16T20:37:55.130Z,23.27
2019-04-16T20:40:35.595Z,25.45
2019-04-16T20:43:11.391Z,21.70
2019-04-16T20:45:42.347Z,32.17
2019-04-16T20:48:13.298Z,26.25
2019-04-16T20:50:43.862Z,40.57
2019-04-16T20:53:14.936Z,21.67
2019-04-16T20:55:48.246Z,22.73
2019-04-16T20:58:19.543Z,24.60
2019-04-16T21:00:51.886Z,24.03
2019-04-16T21:03:22.964Z,22.63
2019-04-16T21:05:59.116Z,29.80
2019-04-16T21:08:27.281Z,43.57
2019-04-16T21:10:59.427Z,25.57
2019-04-16T21:13:31.248Z,27.10
2019-04-16T21:16:03.652Z,26.00
2019-04-16T21:18:34.347Z,28.07
2019-04-16T21:21:06.733Z,29.13
2019-04-16T21:23:39.084Z,42.87
2019-04-16T21:26:10.002Z,80.50
2019-04-16T21:29:06.269Z,67.00
2019-04-16T21:31:43.956Z,65.15
2019-04-16T21:34:40.499Z,33.97
2019-04-16T21:37:34.037Z,37.93
2019-04-16T21:40:10.052Z,33.03
2019-04-16T21:42:42.291Z,24.47
2019-04-16T21:45:16.535Z,22.20
2019-04-16T21:47:47.522Z,23.47
2019-04-16T21:50:19.979Z,22.43
2019-04-16T21:52:55.737Z,25.87
2019-04-16T21:55:28.198Z,23.00
2019-04-16T21:58:01.249Z,25.10
2019-04-16T22:01:05.232Z,26.20
2019-04-16T22:03:45.346Z,22.07
2019-04-16T22:06:20.047Z,22.13
2019-04-16T22:08:49.183Z,23.97
2019-04-16T22:11:22.639Z,23.97
2019-04-16T22:13:55.452Z,22.58
2019-04-16T22:16:32.050Z,22.77
2019-04-16T22:19:05.000Z,24.10
2019-04-16T22:21:36.043Z,27.03
2019-04-16T22:24:09.950Z,22.53
2019-04-16T22:26:52.544Z,25.80
2019-04-16T22:29:24.491Z,24.63
2019-04-16T22:31:56.875Z,23.32
2019-04-16T22:34:31.197Z,24.37
2019-04-16T22:37:02.762Z,24.10
2019-04-16T22:39:58.902Z,25.97
2019-04-16T22:42:34.893Z,26.53
2019-04-16T22:45:30.599Z,24.63
2019-04-16T22:48:01.828Z,23.53
2019-04-16T22:50:34.774Z,22.83
2019-04-16T22:53:06.522Z,23.13
2019-04-16T22:55:37.404Z,24.67
2019-04-16T22:58:22.642Z,34.70
2019-04-16T23:00:58.140Z,37.30
2019-04-16T23:03:29.769Z,27.97
2019-04-16T23:06:07.659Z,58.10
2019-04-16T23:08:33.647Z,21.40
2019-04-16T23:11:04.814Z,21.97
2019-04-16T23:13:35.762Z,30.53
2019-04-16T23:16:07.454Z,22.55
2019-04-16T23:18:39.048Z,24.60
2019-04-16T23:21:11.966Z,24.47
2019-04-16T23:23:43.158Z,20.70
2019-04-16T23:26:15.060Z,21.93
2019-04-16T23:28:46.375Z,21.03
2019-04-16T23:31:19.621Z,21.80
2019-04-16T23:33:52.158Z,22.55
2019-04-16T23:36:23.202Z,21.10
2019-04-16T23:38:55.769Z,21.57
2019-04-16T23:41:26.647Z,18.73
2019-04-16T23:44:10.214Z,20.50
2019-04-16T23:47:11.766Z,21.13
2019-04-16T23:50:01.623Z,18.97
2019-04-16T23:52:35.524Z,21.70
2019-04-16T23:55:17.551Z,21.47
2019-04-16T23:58:07.054Z,20.40
